Time;durP1;ratioP1;P1;durP2;ratioP2;P2;SDS_P1;SDS_P2;PMS_P1;PMS_P2;Temp;Humidity;BMP_temperature;BMP_pressure;BME280_temperature;BME280_humidity;BME280_pressure;Samples;Min_cycle;Max_cycle;Signal;HPM_P1;HPM_P2
2022/03/14 00:00:11;;;;;;;6.10;3.27;;;5.60;99.90;;;;;;5033522;28;20280;-70
2022/03/14 00:02:37;;;;;;;9.20;2.87;;;5.50;99.90;;;;;;5033628;28;20661;-71
2022/03/14 00:05:04;;;;;;;7.13;3.10;;;5.70;99.90;;;;;;5015496;28;20182;-71
2022/03/14 00:07:31;;;;;;;7.97;3.27;;;5.70;99.90;;;;;;5031815;28;20498;-69
2022/03/14 00:09:57;;;;;;;10.83;3.00;;;5.70;99.90;;;;;;5029867;28;20182;-70
2022/03/14 00:12:25;;;;;;;10.53;3.50;;;5.70;99.90;;;;;;5022040;28;20636;-70
2022/03/14 00:14:56;;;;;;;8.23;3.30;;;5.70;99.90;;;;;;5052838;28;20200;-70
2022/03/14 00:17:23;;;;;;;7.03;3.33;;;5.70;99.90;;;;;;5020188;28;20186;-71
2022/03/14 00:19:50;;;;;;;7.73;3.43;;;5.70;99.90;;;;;;5033438;28;20182;-72
2022/03/14 00:22:19;;;;;;;6.83;3.63;;;5.70;99.90;;;;;;5032832;28;20174;-70
2022/03/14 00:24:44;;;;;;;12.80;3.83;;;5.60;99.90;;;;;;5033084;28;20196;-70
2022/03/14 00:27:10;;;;;;;8.73;3.47;;;5.00;99.90;;;;;;5032587;28;20182;-71
2022/03/14 00:29:36;;;;;;;10.33;3.40;;;5.60;99.90;;;;;;5033053;28;20535;-72
2022/03/14 00:32:02;;;;;;;11.13;3.27;;;5.60;99.90;;;;;;5033220;28;20232;-71
2022/03/14 00:34:27;;;;;;;13.30;4.23;;;5.70;99.90;;;;;;5032853;28;20181;-71
2022/03/14 00:36:53;;;;;;;8.53;3.50;;;5.70;99.90;;;;;;5032582;28;20181;-71
2022/03/14 00:39:19;;;;;;;13.10;3.60;;;5.60;99.90;;;;;;5032555;28;20182;-72
2022/03/14 00:41:45;;;;;;;12.97;3.57;;;5.60;99.90;;;;;;5030688;28;20198;-73
2022/03/14 00:44:15;;;;;;;11.90;3.23;;;5.60;99.90;;;;;;5038326;28;20238;-72
2022/03/14 00:46:41;;;;;;;15.47;3.53;;;5.60;99.90;;;;;;5044273;28;20189;-72
2022/03/14 00:49:07;;;;;;;9.97;3.07;;;5.50;99.90;;;;;;5032303;28;20173;-71
2022/03/14 00:51:35;;;;;;;10.53;3.00;;;5.50;99.90;;;;;;5032513;28;20225;-72
2022/03/14 00:54:01;;;;;;;8.63;3.33;;;5.50;99.90;;;;;;5032445;28;20166;-71
2022/03/14 00:56:28;;;;;;;10.50;3.70;;;5.50;99.90;;;;;;5032382;28;20221;-72
2022/03/14 00:58:54;;;;;;;11.03;3.60;;;5.50;99.90;;;;;;5032530;28;20185;-71
2022/03/14 01:01:24;;;;;;;7.23;3.43;;;5.50;99.90;;;;;;5032615;28;20178;-72
2022/03/14 01:03:50;;;;;;;7.50;3.77;;;5.50;99.90;;;;;;5032127;28;20218;-71
2022/03/14 01:06:15;;;;;;;12.40;3.33;;;5.50;99.90;;;;;;5032081;28;20173;-72
2022/03/14 01:08:41;;;;;;;8.87;3.67;;;5.40;99.90;;;;;;5032221;28;20202;-71
2022/03/14 01:11:06;;;;;;;11.13;3.70;;;5.40;99.90;;;;;;5032236;28;20166;-71
2022/03/14 01:13:32;;;;;;;10.00;3.57;;;5.30;99.90;;;;;;5032198;28;20227;-71
2022/03/14 01:15:59;;;;;;;12.50;2.67;;;5.30;99.90;;;;;;5031964;28;20170;-71
2022/03/14 01:18:25;;;;;;;10.77;3.47;;;5.40;99.90;;;;;;5031943;28;20803;-72
2022/03/14 01:20:51;;;;;;;13.30;2.43;;;5.50;99.90;;;;;;5031665;28;20649;-72
2022/03/14 01:23:17;;;;;;;10.73;2.93;;;5.70;99.90;;;;;;5031990;28;20279;-73
2022/03/14 01:25:45;;;;;;;6.43;2.70;;;5.70;99.90;;;;;;5012843;28;20178;-72
2022/03/14 01:28:11;;;;;;;22.87;3.17;;;5.60;99.90;;;;;;5030276;28;20198;-73
2022/03/14 01:30:37;;;;;;;18.60;3.10;;;5.50;99.90;;;;;;5029837;28;20173;-72
2022/03/14 01:33:03;;;;;;;6.53;2.87;;;5.40;99.90;;;;;;5042088;28;20170;-73
2022/03/14 01:35:29;;;;;;;16.77;3.00;;;5.40;99.90;;;;;;5031487;28;20269;-72
2022/03/14 01:37:56;;;;;;;12.77;3.10;;;5.40;99.90;;;;;;5031739;28;20528;-72
2022/03/14 01:40:21;;;;;;;8.73;2.90;;;5.40;99.90;;;;;;5030487;28;20676;-72
2022/03/14 01:42:47;;;;;;;17.90;3.07;;;5.30;99.90;;;;;;5031093;28;20280;-72
2022/03/14 01:45:15;;;;;;;12.23;2.93;;;5.30;99.90;;;;;;5031663;28;20182;-71
2022/03/14 01:47:42;;;;;;;8.47;2.73;;;5.30;99.90;;;;;;5031594;28;20674;-72
2022/03/14 01:50:09;;;;;;;16.27;2.87;;;5.20;99.90;;;;;;5031157;28;20286;-72
2022/03/14 01:52:35;;;;;;;13.17;2.67;;;5.20;99.90;;;;;;5031535;28;20185;-72
2022/03/14 01:55:02;;;;;;;13.67;2.70;;;5.20;99.90;;;;;;5031406;28;20555;-73
2022/03/14 01:57:29;;;;;;;14.80;2.80;;;5.10;99.90;;;;;;5031287;28;20178;-72
2022/03/14 01:59:56;;;;;;;10.53;2.70;;;5.20;99.90;;;;;;5031251;28;20213;-72
2022/03/14 02:02:21;;;;;;;10.07;2.70;;;5.10;99.90;;;;;;5031343;28;20174;-72
2022/03/14 02:04:47;;;;;;;10.47;2.90;;;5.10;99.90;;;;;;5031335;28;20188;-72
2022/03/14 02:07:13;;;;;;;14.07;2.77;;;5.10;99.90;;;;;;5030235;28;20174;-72
2022/03/14 02:09:39;;;;;;;16.77;2.97;;;5.10;99.90;;;;;;5030990;28;20247;-71
2022/03/14 02:12:09;;;;;;;19.93;2.77;;;5.10;99.90;;;;;;5031068;28;20166;-71
2022/03/14 02:14:39;;;;;;;13.50;2.30;;;5.10;99.90;;;;;;5028927;28;20234;-61
2022/03/14 02:17:09;;;;;;;13.43;2.73;;;5.10;99.90;;;;;;5030720;28;20201;-73
2022/03/14 02:19:35;;;;;;;12.57;2.97;;;5.10;99.90;;;;;;5030953;28;20174;-72
2022/03/14 02:22:05;;;;;;;11.63;2.77;;;5.10;99.90;;;;;;5030894;28;20212;-72
2022/03/14 02:24:31;;;;;;;8.10;2.50;;;5.10;99.90;;;;;;5030982;28;20696;-71
2022/03/14 02:26:57;;;;;;;13.73;3.03;;;5.10;99.90;;;;;;5012785;28;20181;-72
2022/03/14 02:29:24;;;;;;;16.40;3.10;;;5.00;99.90;;;;;;5030534;28;20300;-72
2022/03/14 02:31:51;;;;;;;11.03;2.90;;;5.10;99.90;;;;;;5030832;28;20668;-72
2022/03/14 02:34:17;;;;;;;16.40;2.90;;;5.10;99.90;;;;;;5031023;28;20166;-73
2022/03/14 02:36:43;;;;;;;13.37;3.70;;;5.10;99.90;;;;;;5028859;28;20180;-72
2022/03/14 02:39:09;;;;;;;9.27;2.93;;;5.00;99.90;;;;;;5030846;28;20181;-72
2022/03/14 02:41:36;;;;;;;14.23;2.77;;;5.00;99.90;;;;;;5030555;28;20174;-72
2022/03/14 02:44:06;;;;;;;11.27;2.97;;;4.60;99.90;;;;;;5030442;28;20496;-74
2022/03/14 02:46:38;;;;;;;11.60;2.80;;;4.90;99.90;;;;;;5030481;28;20186;-74
2022/03/14 02:49:05;;;;;;;7.37;2.77;;;4.80;99.90;;;;;;5030765;28;20213;-74
2022/03/14 02:51:34;;;;;;;12.80;2.80;;;4.90;99.90;;;;;;5030434;28;20233;-74
2022/03/14 02:54:04;;;;;;;12.20;2.27;;;4.90;99.90;;;;;;5028228;28;20186;-74
2022/03/14 02:56:30;;;;;;;10.17;2.53;;;5.00;99.90;;;;;;5030479;28;20170;-74
2022/03/14 02:58:56;;;;;;;15.07;2.97;;;5.10;99.90;;;;;;5030453;28;20500;-74
2022/03/14 03:01:21;;;;;;;16.80;2.93;;;5.00;99.90;;;;;;5030460;28;20645;-73
2022/03/14 03:03:48;;;;;;;12.20;2.27;;;5.00;99.90;;;;;;5030007;28;20689;-73
2022/03/14 03:06:15;;;;;;;10.50;2.73;;;5.00;99.90;;;;;;5030526;28;20178;-74
2022/03/14 03:08:44;;;;;;;16.40;2.40;;;5.00;99.90;;;;;;5030393;28;20656;-74
2022/03/14 03:11:13;;;;;;;13.20;2.60;;;4.90;99.90;;;;;;5030166;28;20166;-73
2022/03/14 03:13:43;;;;;;;16.17;2.53;;;4.90;99.90;;;;;;5029987;28;20656;-73
2022/03/14 03:16:12;;;;;;;12.83;2.57;;;4.90;99.90;;;;;;5030537;28;20170;-74
2022/03/14 03:18:38;;;;;;;16.23;2.77;;;4.90;99.90;;;;;;5030142;28;20178;-73
2022/03/14 03:21:03;;;;;;;12.97;2.67;;;4.20;99.90;;;;;;5029124;28;20166;-75
2022/03/14 03:23:30;;;;;;;11.67;2.30;;;4.80;99.90;;;;;;5029880;28;20221;-73
2022/03/14 03:25:56;;;;;;;11.43;2.60;;;4.70;99.90;;;;;;5030408;28;20170;-74
2022/03/14 03:28:22;;;;;;;15.10;2.60;;;4.70;99.90;;;;;;5030243;28;20174;-74
2022/03/14 03:30:47;;;;;;;10.63;2.50;;;4.60;99.90;;;;;;5029922;28;20555;-75
2022/03/14 03:33:13;;;;;;;10.67;2.40;;;4.60;99.90;;;;;;5030091;28;20181;-76
2022/03/14 03:35:39;;;;;;;9.40;2.43;;;4.70;99.90;;;;;;5030299;28;20178;-75
2022/03/14 03:38:05;;;;;;;19.90;3.13;;;4.70;99.90;;;;;;5030142;28;20243;-75
2022/03/14 03:40:30;;;;;;;11.17;2.60;;;4.70;99.90;;;;;;5030360;28;20202;-75
2022/03/14 03:42:56;;;;;;;10.27;2.70;;;4.70;99.90;;;;;;5029969;28;20264;-76
2022/03/14 03:45:22;;;;;;;16.90;3.00;;;4.70;99.90;;;;;;5029928;28;20546;-76
2022/03/14 03:47:48;;;;;;;14.27;3.37;;;4.70;99.90;;;;;;5030098;28;20169;-76
2022/03/14 03:50:14;;;;;;;14.80;3.97;;;4.80;99.90;;;;;;5033497;28;20213;-75
2022/03/14 03:52:40;;;;;;;19.30;3.53;;;4.80;99.90;;;;;;5033775;28;20196;-75
2022/03/14 03:55:06;;;;;;;14.00;3.30;;;4.80;99.90;;;;;;5033229;28;20182;-74
2022/03/14 03:57:31;;;;;;;11.77;3.30;;;4.80;99.90;;;;;;5033611;28;20245;-73
2022/03/14 03:59:58;;;;;;;15.47;3.53;;;4.80;99.90;;;;;;5033706;28;20221;-74
2022/03/14 04:02:23;;;;;;;10.07;3.13;;;4.80;99.90;;;;;;5033609;28;20166;-75
2022/03/14 04:04:50;;;;;;;19.80;3.83;;;4.70;99.90;;;;;;5033417;28;20679;-74
2022/03/14 04:07:19;;;;;;;9.80;2.80;;;4.80;99.90;;;;;;5033656;28;20265;-75
2022/03/14 04:09:50;;;;;;;13.50;2.60;;;4.70;99.90;;;;;;5033308;28;20174;-74
2022/03/14 04:12:16;;;;;;;19.77;3.63;;;4.70;99.90;;;;;;5033667;28;20173;-73
2022/03/14 04:14:43;;;;;;;14.60;2.70;;;4.70;99.90;;;;;;5033084;28;20174;-74
2022/03/14 04:17:09;;;;;;;14.47;2.67;;;4.70;99.90;;;;;;5033196;28;20257;-73
2022/03/14 04:19:38;;;;;;;17.43;2.70;;;4.70;99.90;;;;;;5032969;28;20206;-73
2022/03/14 04:22:04;;;;;;;14.57;2.80;;;4.70;99.90;;;;;;5033279;28;20181;-73
2022/03/14 04:24:29;;;;;;;12.60;3.00;;;4.70;99.90;;;;;;5032702;28;20210;-73
2022/03/14 04:26:55;;;;;;;16.73;2.80;;;4.70;99.90;;;;;;5033274;28;20190;-73
2022/03/14 04:29:20;;;;;;;9.70;2.03;;;4.70;99.90;;;;;;5033458;28;20171;-75
2022/03/14 04:31:46;;;;;;;12.93;2.40;;;4.70;99.90;;;;;;5032741;28;20178;-74
2022/03/14 04:34:12;;;;;;;21.43;3.07;;;4.70;99.90;;;;;;5033078;28;20178;-74
2022/03/14 04:36:37;;;;;;;14.53;2.50;;;4.60;99.90;;;;;;5032953;28;20231;-71
2022/03/14 04:39:04;;;;;;;10.40;2.33;;;5.00;99.90;;;;;;5032832;28;20538;-72
2022/03/14 04:41:33;;;;;;;4.83;2.07;;;4.70;99.90;;;;;;5032707;28;20257;-71
2022/03/14 04:43:58;;;;;;;17.43;3.20;;;4.60;99.90;;;;;;5032604;28;20399;-72
2022/03/14 04:46:24;;;;;;;13.17;2.70;;;4.60;99.90;;;;;;5032814;28;20202;-75
2022/03/14 04:48:50;;;;;;;9.30;2.83;;;4.50;99.90;;;;;;5032784;28;20209;-75
2022/03/14 04:51:15;;;;;;;11.27;2.63;;;4.50;99.90;;;;;;5032146;28;20218;-75
2022/03/14 04:53:41;;;;;;;21.63;2.97;;;4.50;99.90;;;;;;5032765;28;20184;-75
2022/03/14 04:56:07;;;;;;;15.57;2.57;;;4.50;99.90;;;;;;5032986;28;20181;-76
2022/03/14 04:58:33;;;;;;;12.90;2.53;;;4.40;99.90;;;;;;5032842;28;20270;-74
2022/03/14 05:00:59;;;;;;;10.53;2.50;;;4.50;99.90;;;;;;5031966;28;20704;-75
2022/03/14 05:03:25;;;;;;;18.83;3.00;;;4.40;99.90;;;;;;5032351;28;20214;-74
2022/03/14 05:05:51;;;;;;;13.20;2.63;;;4.40;99.90;;;;;;5030456;28;20182;-74
2022/03/14 05:08:16;;;;;;;10.57;2.53;;;4.40;99.90;;;;;;5044794;28;20181;-73
2022/03/14 05:10:42;;;;;;;11.77;2.53;;;4.30;99.90;;;;;;5041204;28;20185;-73
2022/03/14 05:13:08;;;;;;;10.07;2.30;;;4.30;99.90;;;;;;5031787;28;20186;-74
2022/03/14 05:15:34;;;;;;;19.20;2.70;;;4.30;99.90;;;;;;5032228;28;20185;-73
2022/03/14 05:18:01;;;;;;;14.27;2.57;;;4.40;99.90;;;;;;5031949;28;20202;-73
2022/03/14 05:20:26;;;;;;;12.10;2.93;;;4.40;99.90;;;;;;5031858;28;20657;-73
2022/03/14 05:22:53;;;;;;;11.90;2.70;;;4.30;99.90;;;;;;5031668;28;20247;-73
2022/03/14 05:25:23;;;;;;;14.47;3.00;;;4.20;99.90;;;;;;5031872;28;20257;-73
2022/03/14 05:27:50;;;;;;;19.53;3.00;;;4.30;99.90;;;;;;5032176;28;20192;-77
2022/03/14 05:30:16;;;;;;;15.87;2.60;;;4.30;99.90;;;;;;5032028;28;20173;-77
2022/03/14 05:32:42;;;;;;;11.33;2.80;;;4.40;99.90;;;;;;5031892;28;20684;-75
2022/03/14 05:35:11;;;;;;;12.87;2.70;;;4.30;99.90;;;;;;5013829;28;20176;-74
2022/03/14 05:37:38;;;;;;;15.83;2.77;;;4.30;99.90;;;;;;5031658;28;20223;-76
2022/03/14 05:40:05;;;;;;;10.50;2.57;;;4.70;99.90;;;;;;5031671;28;20185;-73
2022/03/14 05:42:31;;;;;;;14.80;3.03;;;4.40;99.90;;;;;;5031559;28;20707;-73
2022/03/14 05:44:57;;;;;;;15.50;2.73;;;4.20;99.90;;;;;;5030096;28;20272;-73
2022/03/14 05:47:22;;;;;;;13.10;2.47;;;4.20;99.90;;;;;;5031608;28;20250;-73
2022/03/14 05:49:48;;;;;;;18.43;3.10;;;4.20;99.90;;;;;;5031391;28;20277;-71
2022/03/14 05:52:14;;;;;;;11.93;2.50;;;4.20;99.90;;;;;;5030101;28;20166;-72
2022/03/14 05:54:40;;;;;;;13.83;2.77;;;4.30;99.90;;;;;;5031124;28;20181;-73
2022/03/14 05:57:06;;;;;;;12.70;3.00;;;4.20;99.90;;;;;;5031410;28;20186;-72
2022/03/14 05:59:31;;;;;;;14.93;3.30;;;4.20;99.90;;;;;;5031147;28;20170;-72
2022/03/14 06:01:59;;;;;;;13.53;2.80;;;4.20;99.90;;;;;;5032247;28;20182;-75
2022/03/14 06:04:24;;;;;;;9.97;2.47;;;4.10;99.90;;;;;;5030054;28;20217;-60
2022/03/14 06:06:50;;;;;;;12.87;2.80;;;4.00;99.90;;;;;;5029772;28;20184;-64
2022/03/14 06:09:18;;;;;;;12.00;2.80;;;4.00;99.90;;;;;;5031380;28;20239;-73
2022/03/14 06:11:48;;;;;;;9.60;2.47;;;3.80;99.90;;;;;;5030280;28;20174;-72
2022/03/14 06:14:13;;;;;;;12.17;2.90;;;3.80;99.90;;;;;;5031054;28;20181;-74
2022/03/14 06:16:39;;;;;;;12.03;2.83;;;3.80;99.90;;;;;;5031248;28;20546;-75
2022/03/14 06:19:05;;;;;;;12.10;2.80;;;3.80;99.90;;;;;;5030807;28;20174;-73
2022/03/14 06:21:34;;;;;;;17.03;3.23;;;3.80;99.90;;;;;;5031219;28;20636;-73
2022/03/14 06:24:03;;;;;;;14.93;3.17;;;3.80;99.90;;;;;;5030835;28;20205;-72
2022/03/14 06:26:30;;;;;;;12.73;2.97;;;3.80;99.90;;;;;;5031049;28;20202;-73
2022/03/14 06:28:58;;;;;;;17.33;2.80;;;4.60;99.90;;;;;;5031156;28;20702;-73
2022/03/14 06:31:24;;;;;;;13.90;3.20;;;3.90;99.90;;;;;;5031073;28;20185;-72
2022/03/14 06:33:50;;;;;;;15.40;2.93;;;3.90;99.90;;;;;;5030668;28;20185;-72
2022/03/14 06:36:15;;;;;;;13.47;3.07;;;3.90;99.90;;;;;;5031407;28;20182;-78
2022/03/14 06:38:41;;;;;;;17.30;2.77;;;4.10;99.90;;;;;;5045055;28;20185;-77
2022/03/14 06:41:08;;;;;;;10.70;2.80;;;3.80;99.90;;;;;;5042246;28;20178;-76
2022/03/14 06:43:35;;;;;;;18.97;2.90;;;3.70;99.90;;;;;;5040547;28;20213;-76
2022/03/14 06:46:03;;;;;;;15.37;3.90;;;3.70;99.90;;;;;;5040169;28;20181;-77
2022/03/14 06:48:29;;;;;;;11.00;2.67;;;3.80;99.90;;;;;;5047230;28;20188;-76
2022/03/14 06:50:55;;;;;;;12.50;2.60;;;3.80;99.90;;;;;;5058340;28;20217;-77
2022/03/14 06:53:20;;;;;;;13.57;2.77;;;3.80;99.90;;;;;;5030442;28;20260;-76
2022/03/14 06:55:47;;;;;;;11.97;3.60;;;3.70;99.90;;;;;;5040080;28;20188;-77
2022/03/14 06:58:13;;;;;;;14.63;3.43;;;3.70;99.90;;;;;;5038023;28;20181;-77
2022/03/14 07:00:39;;;;;;;12.40;2.93;;;3.70;99.90;;;;;;5027463;28;20196;-75
2022/03/14 07:03:05;;;;;;;14.13;4.07;;;3.70;99.90;;;;;;5035831;28;20205;-76
2022/03/14 07:05:31;;;;;;;16.80;3.33;;;3.80;99.90;;;;;;5027831;28;20248;-76
2022/03/14 07:07:57;;;;;;;11.47;3.40;;;3.80;99.90;;;;;;5031850;28;20181;-75
2022/03/14 07:10:22;;;;;;;8.87;3.10;;;3.90;99.90;;;;;;5031372;28;20178;-76
2022/03/14 07:12:51;;;;;;;14.93;2.93;;;3.80;99.90;;;;;;5032091;28;20178;-78
2022/03/14 07:15:22;;;;;;;12.43;3.00;;;3.90;99.90;;;;;;5034277;28;20193;-78
2022/03/14 07:17:48;;;;;;;10.90;3.03;;;3.90;99.90;;;;;;5032803;28;20201;-78
2022/03/14 07:20:17;;;;;;;16.87;3.60;;;4.00;99.90;;;;;;5033285;28;20224;-79
2022/03/14 07:22:59;;;;;;;18.70;3.43;;;3.80;99.90;;;;;;5033860;28;20182;-78
2022/03/14 07:25:31;;;;;;;18.33;3.70;;;4.20;99.90;;;;;;5035867;28;20186;-71
2022/03/14 07:28:00;;;;;;;12.97;3.60;;;4.30;99.90;;;;;;5016865;28;20208;-77
2022/03/14 07:30:26;;;;;;;14.17;3.63;;;4.30;99.90;;;;;;5034944;28;20224;-76
2022/03/14 07:32:52;;;;;;;15.73;3.57;;;4.40;99.90;;;;;;5034573;28;20204;-76
2022/03/14 07:35:18;;;;;;;16.83;4.27;;;4.50;99.90;;;;;;5034293;28;20228;-76
2022/03/14 07:37:44;;;;;;;15.53;3.53;;;4.50;99.90;;;;;;5034141;28;20292;-77
2022/03/14 07:40:12;;;;;;;13.50;4.10;;;4.70;99.90;;;;;;5034070;28;20253;-76
2022/03/14 07:42:49;;;;;;;18.37;4.33;;;4.70;99.90;;;;;;5033950;28;20196;-77
2022/03/14 07:45:20;;;;;;;16.93;4.97;;;4.80;99.90;;;;;;5033886;28;20220;-64
2022/03/14 07:47:46;;;;;;;24.67;5.23;;;4.90;99.90;;;;;;5033862;28;20174;-67
2022/03/14 07:50:15;;;;;;;14.80;4.73;;;4.90;99.90;;;;;;5032964;28;20229;-65
2022/03/14 07:52:42;;;;;;;14.30;4.60;;;5.00;99.90;;;;;;5043555;28;20188;-65
2022/03/14 07:55:09;;;;;;;12.67;4.50;;;5.10;99.90;;;;;;5035419;28;20538;-65
2022/03/14 07:57:35;;;;;;;16.27;5.17;;;5.10;99.90;;;;;;5015896;28;20190;-71
2022/03/14 08:00:06;;;;;;;20.43;5.13;;;5.30;99.90;;;;;;5033134;28;20724;-69
2022/03/14 08:02:31;;;;;;;14.23;5.10;;;5.50;99.90;;;;;;5033148;28;20649;-69
2022/03/14 08:04:57;;;;;;;17.53;6.13;;;5.70;99.90;;;;;;5032815;28;20209;-71
2022/03/14 08:07:23;;;;;;;15.93;5.47;;;5.70;99.90;;;;;;5033040;28;20178;-70
2022/03/14 08:09:48;;;;;;;21.87;6.17;;;5.80;99.90;;;;;;5033676;28;20178;-74
2022/03/14 08:12:16;;;;;;;13.30;5.43;;;5.90;99.90;;;;;;5033452;28;20625;-75
2022/03/14 08:14:43;;;;;;;15.93;5.23;;;6.10;99.90;;;;;;5033119;28;20190;-74
2022/03/14 08:17:08;;;;;;;18.50;5.40;;;6.20;99.90;;;;;;5031800;28;20197;-75
2022/03/14 08:19:34;;;;;;;20.27;5.63;;;6.30;99.90;;;;;;5033298;28;20220;-74
2022/03/14 08:22:03;;;;;;;13.77;4.63;;;6.50;99.90;;;;;;5033365;28;20204;-76
2022/03/14 08:24:29;;;;;;;19.53;5.57;;;6.60;99.90;;;;;;5032052;28;20296;-76
2022/03/14 08:26:54;;;;;;;16.97;5.00;;;6.70;99.90;;;;;;5032539;28;20256;-75
2022/03/14 08:29:20;;;;;;;18.13;5.30;;;6.90;99.90;;;;;;5033194;28;20181;-74
2022/03/14 08:31:46;;;;;;;14.90;4.60;;;7.00;99.90;;;;;;5033033;28;20668;-74
2022/03/14 08:34:13;;;;;;;20.10;5.80;;;7.20;99.90;;;;;;5032392;28;20182;-76
2022/03/14 08:36:40;;;;;;;19.57;4.80;;;7.40;99.90;;;;;;5014724;28;20174;-73
2022/03/14 08:39:07;;;;;;;21.37;5.37;;;7.60;99.90;;;;;;5031559;28;20239;-76
2022/03/14 08:41:34;;;;;;;16.73;4.80;;;8.10;99.90;;;;;;5032775;28;20205;-73
2022/03/14 08:44:00;;;;;;;18.63;5.23;;;11.20;99.90;;;;;;5032514;28;20210;-73
2022/03/14 08:46:26;;;;;;;19.47;5.60;;;13.90;99.90;;;;;;5032584;28;20668;-77
2022/03/14 08:48:51;;;;;;;14.47;4.57;;;15.80;99.90;;;;;;5032337;28;20174;-72
2022/03/14 08:51:17;;;;;;;13.60;4.30;;;16.60;99.90;;;;;;5032411;28;20214;-71
2022/03/14 08:53:42;;;;;;;17.73;4.30;;;15.00;99.90;;;;;;5032142;28;20178;-67
2022/03/14 08:56:10;;;;;;;13.82;4.03;;;14.10;99.90;;;;;;5032175;28;20651;-67
2022/03/14 08:58:35;;;;;;;19.80;5.15;;;14.30;99.90;;;;;;5032603;28;20213;-67
2022/03/14 09:01:01;;;;;;;18.13;4.55;;;15.20;99.90;;;;;;5032077;28;20581;-67
2022/03/14 09:03:27;;;;;;;22.33;4.68;;;15.80;99.90;;;;;;5031926;28;20224;-66
2022/03/14 09:05:59;;;;;;;18.60;4.32;;;16.80;99.90;;;;;;5014510;28;20197;-66
2022/03/14 09:08:28;;;;;;;18.23;4.68;;;16.00;99.90;;;;;;5032243;28;20224;-66
2022/03/14 09:10:55;;;;;;;17.00;4.35;;;15.70;99.90;;;;;;5031609;28;20701;-67
2022/03/14 09:13:21;;;;;;;19.10;4.63;;;16.50;99.90;;;;;;5022725;28;20292;-70
2022/03/14 09:15:48;;;;;;;22.88;3.53;;;18.90;99.90;;;;;;5030843;28;20268;-68
2022/03/14 09:18:14;;;;;;;15.57;3.72;;;19.20;99.90;;;;;;5031304;28;20174;-67
2022/03/14 09:20:40;;;;;;;20.77;3.70;;;19.60;99.90;;;;;;5031899;28;20181;-68
2022/03/14 09:23:07;;;;;;;14.20;3.65;;;17.60;99.90;;;;;;5014161;28;20210;-69
2022/03/14 09:25:33;;;;;;;18.58;3.08;;;17.50;99.90;;;;;;5031899;28;20257;-67
2022/03/14 09:27:59;;;;;;;14.63;3.40;;;19.70;99.90;;;;;;5031352;28;20237;-68
2022/03/14 09:30:25;;;;;;;16.27;3.67;;;20.10;99.90;;;;;;5030762;28;20197;-70
2022/03/14 09:32:52;;;;;;;20.92;3.40;;;19.70;99.90;;;;;;5031215;28;20177;-70
2022/03/14 09:35:19;;;;;;;12.60;3.03;;;20.30;99.90;;;;;;5028636;28;20190;-71
2022/03/14 09:37:46;;;;;;;17.92;3.25;;;21.20;99.90;;;;;;5031226;28;20252;-71
2022/03/14 09:40:16;;;;;;;14.65;3.10;;;22.60;99.90;;;;;;5031386;28;20178;-72
2022/03/14 09:42:44;;;;;;;25.48;3.25;;;23.00;99.90;;;;;;5030802;28;20201;-70
2022/03/14 09:45:14;;;;;;;16.27;2.92;;;23.30;99.90;;;;;;5030788;28;20269;-70
2022/03/14 09:47:45;;;;;;;18.85;3.25;;;21.50;99.90;;;;;;5029564;28;20640;-70
2022/03/14 09:50:35;;;;;;;10.95;2.25;;;19.60;99.90;;;;;;5030280;28;20228;-70
2022/03/14 09:53:09;;;;;;;17.23;2.35;;;21.40;99.90;;;;;;5015867;28;20193;-72
2022/03/14 09:55:44;;;;;;;15.45;3.00;;;21.60;99.90;;;;;;5031292;28;20182;-70
2022/03/14 09:58:11;;;;;;;9.70;2.17;;;22.60;99.90;;;;;;5030974;28;20166;-71
2022/03/14 10:00:38;;;;;;;17.45;3.35;;;23.80;99.90;;;;;;5031083;28;20826;-71
2022/03/14 10:03:04;;;;;;;9.82;2.28;;;24.30;99.90;;;;;;5030711;28;20206;-71
2022/03/14 10:05:30;;;;;;;17.42;2.40;;;23.70;99.90;;;;;;5031090;28;20173;-71
2022/03/14 10:07:56;;;;;;;12.38;2.30;;;23.70;99.90;;;;;;5012217;28;20174;-73
2022/03/14 10:10:22;;;;;;;10.95;2.38;;;23.50;99.90;;;;;;5044022;28;20644;-73
2022/03/14 10:12:57;;;;;;;9.43;1.92;;;23.20;99.90;;;;;;5050856;28;20165;-73
2022/03/14 10:15:25;;;;;;;14.48;2.28;;;22.50;99.90;;;;;;5011215;28;20264;-67
2022/03/14 10:17:52;;;;;;;10.15;2.35;;;22.60;99.90;;;;;;5011428;28;20182;-67
2022/03/14 10:20:18;;;;;;;12.63;2.28;;;22.00;99.90;;;;;;5011202;28;20163;-67
2022/03/14 10:22:45;;;;;;;10.52;2.67;;;22.70;99.90;;;;;;5011120;28;20194;-68
2022/03/14 10:25:15;;;;;;;11.63;2.78;;;23.10;99.90;;;;;;5019836;28;20181;-68
2022/03/14 10:27:55;;;;;;;13.20;2.15;;;23.60;99.90;;;;;;5045708;28;20252;-68
2022/03/14 10:30:29;;;;;;;13.48;2.30;;;24.30;99.90;;;;;;5047212;28;20894;-69
2022/03/14 10:33:08;;;;;;;14.65;2.28;;;24.20;99.90;;;;;;5030782;28;20752;-68
2022/03/14 10:35:40;;;;;;;10.93;1.90;;;23.90;99.90;;;;;;5030621;28;20178;-66
2022/03/14 10:38:08;;;;;;;16.33;2.88;;;21.40;99.90;;;;;;5030725;28;20665;-68
2022/03/14 10:40:44;;;;;;;13.00;2.45;;;22.30;99.90;;;;;;5029767;28;20244;-68
2022/03/14 10:43:28;;;;;;;13.95;2.72;;;22.30;99.90;;;;;;5039260;28;20192;-67
2022/03/14 10:45:57;;;;;;;11.18;2.30;;;21.60;99.90;;;;;;5050227;28;20181;-66
2022/03/14 10:48:45;;;;;;;9.30;2.40;;;22.40;99.90;;;;;;5050312;28;20236;-67
2022/03/14 10:51:14;;;;;;;11.07;2.40;;;23.60;99.90;;;;;;5050345;28;20221;-67
2022/03/14 10:53:45;;;;;;;14.57;2.58;;;23.90;99.90;;;;;;5050679;28;20221;-67
2022/03/14 10:56:10;;;;;;;14.13;2.60;;;22.20;99.90;;;;;;5048495;28;20297;-67
2022/03/14 10:58:37;;;;;;;12.90;2.35;;;22.40;99.90;;;;;;5035971;28;20184;-67
2022/03/14 11:01:08;;;;;;;11.68;2.42;;;22.00;99.90;;;;;;5056305;28;20189;-67
2022/03/14 11:03:42;;;;;;;13.32;2.28;;;21.60;99.90;;;;;;5056214;28;20200;-67
2022/03/14 11:06:10;;;;;;;9.35;2.05;;;23.00;99.90;;;;;;5056303;28;20165;-67
2022/03/14 11:08:43;;;;;;;15.77;2.50;;;24.10;99.90;;;;;;5056254;28;20173;-67
2022/03/14 11:11:19;;;;;;;12.02;2.55;;;22.00;99.90;;;;;;5056952;28;20238;-68
2022/03/14 11:13:45;;;;;;;7.88;1.90;;;20.60;99.90;;;;;;5057048;28;20183;-67
2022/03/14 11:16:21;;;;;;;15.07;2.75;;;20.00;99.90;;;;;;5056830;28;20655;-67
2022/03/14 11:18:48;;;;;;;9.55;2.10;;;21.20;99.90;;;;;;5055426;28;20173;-67
2022/03/14 11:21:15;;;;;;;10.93;2.05;;;22.40;99.90;;;;;;5036872;28;20257;-67
2022/03/14 11:23:43;;;;;;;8.40;2.03;;;23.00;99.90;;;;;;5036923;28;20205;-67
2022/03/14 11:26:10;;;;;;;9.32;1.80;;;22.80;99.90;;;;;;5036778;28;20261;-67
2022/03/14 11:28:37;;;;;;;14.85;2.05;;;23.10;99.90;;;;;;5036501;28;20216;-67
2022/03/14 11:31:03;;;;;;;12.45;2.35;;;22.70;99.90;;;;;;5036636;28;20277;-67
2022/03/14 11:33:31;;;;;;;10.13;2.10;;;23.80;99.90;;;;;;5036849;28;20678;-67
2022/03/14 11:35:59;;;;;;;12.50;2.45;;;23.70;99.90;;;;;;5036866;28;20257;-67
2022/03/14 11:38:29;;;;;;;7.80;1.70;;;23.70;99.90;;;;;;5036740;28;20641;-67
2022/03/14 11:40:56;;;;;;;10.88;2.35;;;24.40;99.90;;;;;;5036714;28;20227;-68
2022/03/14 11:43:22;;;;;;;14.30;2.30;;;24.80;99.90;;;;;;5036662;28;20205;-68
2022/03/14 11:45:50;;;;;;;12.45;2.22;;;25.30;99.90;;;;;;5036450;28;20173;-68
2022/03/14 11:48:16;;;;;;;11.57;2.55;;;24.70;99.90;;;;;;5017852;28;20224;-68
2022/03/14 11:50:43;;;;;;;10.45;2.20;;;24.40;99.90;;;;;;5036135;28;20217;-68
2022/03/14 11:53:09;;;;;;;10.30;1.95;;;24.20;99.90;;;;;;5036947;28;20206;-68
2022/03/14 11:55:45;;;;;;;12.23;2.33;;;23.40;99.90;;;;;;5036460;28;20184;-68
2022/03/14 11:58:37;;;;;;;12.25;2.08;;;23.60;99.90;;;;;;5036616;28;20165;-68
2022/03/14 12:01:18;;;;;;;10.20;2.15;;;21.50;99.90;;;;;;5036225;28;20247;-67
2022/03/14 12:03:52;;;;;;;15.07;2.33;;;20.10;99.90;;;;;;5036159;28;20204;-67
2022/03/14 12:06:46;;;;;;;10.82;2.28;;;18.40;99.90;;;;;;5036537;28;20171;-66
2022/03/14 12:09:24;;;;;;;6.93;1.95;;;19.80;99.90;;;;;;5033868;28;20645;-66
2022/03/14 12:11:53;;;;;;;11.85;2.20;;;19.00;99.90;;;;;;5033041;28;20209;-67
2022/03/14 12:14:46;;;;;;;8.63;1.92;;;18.40;99.90;;;;;;5033344;28;20184;-67
2022/03/14 12:17:14;;;;;;;6.88;1.25;;;18.70;99.90;;;;;;5032523;28;20182;-67
2022/03/14 12:19:51;;;;;;;13.20;1.88;;;18.50;99.90;;;;;;5030657;28;20189;-67
2022/03/14 12:22:41;;;;;;;7.03;1.77;;;18.50;99.90;;;;;;5033103;28;20704;-67
2022/03/14 12:25:13;;;;;;;7.18;1.15;;;17.30;99.90;;;;;;5014338;28;20209;-67
2022/03/14 12:27:43;;;;;;;9.15;1.40;;;16.60;99.90;;;;;;5032773;28;20637;-67
2022/03/14 12:30:20;;;;;;;11.25;1.67;;;18.50;99.90;;;;;;5032976;28;20178;-67
2022/03/14 12:32:47;;;;;;;8.45;1.63;;;20.20;99.90;;;;;;5032992;28;20701;-67
2022/03/14 12:35:21;;;;;;;6.70;1.73;;;20.90;99.90;;;;;;5032887;28;20653;-67
2022/03/14 12:37:53;;;;;;;6.30;1.50;;;21.30;99.90;;;;;;5032394;28;20201;-67
2022/03/14 12:40:21;;;;;;;12.27;2.08;;;22.20;99.90;;;;;;5032605;28;20300;-68
2022/03/14 12:42:49;;;;;;;8.07;2.10;;;22.60;99.90;;;;;;5032800;28;20173;-68
2022/03/14 12:45:31;;;;;;;13.00;2.00;;;21.20;99.90;;;;;;5032685;28;20205;-68
2022/03/14 12:48:02;;;;;;;10.15;2.38;;;20.20;99.90;;;;;;5032131;28;20644;-68